Time;durP1;ratioP1;P1;durP2;ratioP2;P2;SDS_P1;SDS_P2;PMS_P1;PMS_P2;Temp;Humidity;BMP_temperature;BMP_pressure;BME280_temperature;BME280_humidity;BME280_pressure;Samples;Min_cycle;Max_cycle;Signal;HPM_P1;HPM_P2
2021/11/14 00:01:08;;;;;;;7.50;4.00;;;13.80;88.60;;;;;;4991943;28;20950;-83
2021/11/14 00:03:35;;;;;;;6.15;3.70;;;13.80;88.80;;;;;;5009061;28;20463;-82
2021/11/14 00:06:02;;;;;;;6.07;3.60;;;13.80;88.60;;;;;;5009206;28;20845;-82
2021/11/14 00:08:28;;;;;;;6.82;4.05;;;13.80;88.70;;;;;;5011527;28;20393;-83
2021/11/14 00:10:57;;;;;;;6.85;3.67;;;13.80;88.60;;;;;;4992546;28;20797;-84
2021/11/14 00:13:25;;;;;;;5.53;3.40;;;13.80;88.20;;;;;;5009138;28;20470;-82
2021/11/14 00:15:51;;;;;;;6.35;3.63;;;13.80;88.20;;;;;;4991608;28;20456;-84
2021/11/14 00:18:17;;;;;;;6.35;3.47;;;13.80;87.90;;;;;;5008851;28;20404;-84
2021/11/14 00:20:44;;;;;;;5.82;3.45;;;13.80;88.00;;;;;;4993899;28;20905;-84
2021/11/14 00:23:09;;;;;;;5.88;3.00;;;13.80;88.00;;;;;;5012284;28;20428;-83
2021/11/14 00:25:36;;;;;;;6.80;3.60;;;13.80;87.90;;;;;;4991242;28;20444;-84
2021/11/14 00:28:02;;;;;;;6.28;3.30;;;13.80;87.90;;;;;;5008642;28;20405;-84
2021/11/14 00:30:28;;;;;;;5.63;3.42;;;13.80;88.00;;;;;;5008485;28;20496;-83
2021/11/14 00:32:54;;;;;;;6.90;3.50;;;13.80;88.10;;;;;;5009255;28;20437;-83
2021/11/14 00:35:21;;;;;;;4.38;2.85;;;13.80;89.00;;;;;;5011272;28;20421;-83
2021/11/14 00:37:47;;;;;;;6.28;3.13;;;13.80;88.30;;;;;;5011020;28;20424;-83
2021/11/14 00:40:18;;;;;;;7.20;3.60;;;13.80;88.00;;;;;;5008396;28;20447;-83
2021/11/14 00:42:44;;;;;;;4.85;3.13;;;13.80;88.00;;;;;;5008220;28;20488;-82
2021/11/14 00:45:10;;;;;;;7.28;3.25;;;13.80;88.00;;;;;;5007977;28;20417;-83
2021/11/14 00:47:38;;;;;;;5.57;3.22;;;13.70;89.10;;;;;;5009465;28;20440;-83
2021/11/14 00:50:09;;;;;;;5.63;3.13;;;13.70;87.70;;;;;;5010278;28;20476;-83
2021/11/14 00:52:35;;;;;;;5.93;3.20;;;13.70;88.00;;;;;;5009465;28;20424;-84
2021/11/14 00:55:01;;;;;;;6.23;3.40;;;13.80;87.90;;;;;;5007629;28;20448;-83
2021/11/14 00:57:27;;;;;;;5.93;3.10;;;13.70;87.90;;;;;;5007870;28;20441;-83
2021/11/14 00:59:52;;;;;;;6.80;3.47;;;13.70;88.10;;;;;;5008364;28;20415;-84
2021/11/14 01:02:18;;;;;;;5.28;3.38;;;13.70;89.20;;;;;;5010609;28;20404;-84
2021/11/14 01:04:44;;;;;;;6.28;3.47;;;13.70;88.50;;;;;;5008325;28;20403;-82
2021/11/14 01:07:09;;;;;;;5.63;3.33;;;13.70;88.20;;;;;;5007771;28;20417;-84
2021/11/14 01:09:35;;;;;;;5.18;3.10;;;13.70;87.90;;;;;;5007488;28;20482;-83
2021/11/14 01:12:02;;;;;;;6.03;3.30;;;13.70;88.40;;;;;;4991231;28;20421;-84
2021/11/14 01:14:28;;;;;;;6.30;3.10;;;13.80;88.30;;;;;;5009710;28;20384;-84
2021/11/14 01:16:54;;;;;;;6.13;3.15;;;13.70;88.10;;;;;;5009049;28;20416;-84
2021/11/14 01:19:19;;;;;;;6.93;3.40;;;13.70;88.30;;;;;;5007736;28;21031;-84
2021/11/14 01:21:46;;;;;;;6.13;3.00;;;13.70;88.40;;;;;;5007287;28;20424;-84
2021/11/14 01:24:14;;;;;;;5.20;3.10;;;13.70;88.80;;;;;;5007676;28;20427;-83
2021/11/14 01:26:40;;;;;;;5.47;2.88;;;13.70;88.60;;;;;;5008610;28;20407;-83
2021/11/14 01:29:05;;;;;;;5.37;3.10;;;13.60;88.80;;;;;;5010591;28;20752;-83
2021/11/14 01:31:32;;;;;;;4.50;2.80;;;13.60;89.10;;;;;;5007808;28;20897;-83
2021/11/14 01:33:57;;;;;;;5.53;3.00;;;13.60;89.10;;;;;;5007578;28;20440;-82
2021/11/14 01:36:23;;;;;;;5.82;3.15;;;13.70;89.10;;;;;;5007104;28;20871;-83
2021/11/14 01:38:49;;;;;;;4.97;2.85;;;13.70;89.10;;;;;;4990205;28;20432;-83
2021/11/14 01:41:15;;;;;;;5.27;2.80;;;13.50;89.00;;;;;;5011332;28;20532;-83
2021/11/14 01:43:45;;;;;;;5.73;3.10;;;13.60;89.60;;;;;;5009362;28;20401;-82
2021/11/14 01:46:11;;;;;;;4.40;2.70;;;13.60;89.20;;;;;;5009349;28;20408;-83
2021/11/14 01:48:37;;;;;;;5.13;2.63;;;13.60;89.40;;;;;;5007680;28;20908;-82
2021/11/14 01:51:03;;;;;;;5.35;2.90;;;13.70;89.30;;;;;;5007164;28;20406;-83
2021/11/14 01:53:30;;;;;;;4.70;2.47;;;13.60;89.10;;;;;;5009479;28;20420;-82
2021/11/14 01:55:56;;;;;;;4.80;2.70;;;13.60;89.30;;;;;;5008163;28;20420;-83
2021/11/14 01:58:24;;;;;;;5.40;2.42;;;13.60;89.30;;;;;;5007370;28;20538;-83
2021/11/14 02:00:58;;;;;;;4.60;2.58;;;13.60;89.30;;;;;;5007287;28;20496;-82
2021/11/14 02:03:26;;;;;;;4.35;2.50;;;13.60;89.60;;;;;;5007147;28;20825;-82
2021/11/14 02:05:52;;;;;;;4.82;2.65;;;13.60;89.60;;;;;;5007200;28;20906;-83
2021/11/14 02:08:18;;;;;;;4.30;2.67;;;13.60;89.50;;;;;;5010146;28;20396;-83
2021/11/14 02:10:45;;;;;;;3.90;2.47;;;13.60;89.30;;;;;;5007983;28;20389;-81
2021/11/14 02:13:11;;;;;;;4.80;2.55;;;13.60;89.50;;;;;;5007569;28;20405;-83
2021/11/14 02:15:38;;;;;;;4.83;2.43;;;13.60;89.50;;;;;;5006877;28;20425;-83
2021/11/14 02:18:06;;;;;;;4.73;2.40;;;13.70;89.60;;;;;;5007178;28;20407;-81
2021/11/14 02:20:32;;;;;;;4.65;2.53;;;13.60;89.40;;;;;;4990959;28;20484;-82
2021/11/14 02:22:58;;;;;;;5.57;2.35;;;13.60;89.50;;;;;;5008906;28;20976;-83
2021/11/14 02:25:24;;;;;;;4.38;2.40;;;13.60;89.60;;;;;;5007206;28;20440;-81
2021/11/14 02:27:52;;;;;;;5.55;2.72;;;13.70;89.40;;;;;;5007033;28;20408;-83
2021/11/14 02:30:20;;;;;;;4.13;2.42;;;13.60;89.40;;;;;;4989629;28;20405;-83
2021/11/14 02:32:47;;;;;;;4.18;2.65;;;13.60;89.40;;;;;;4991733;28;20543;-83
2021/11/14 02:35:14;;;;;;;5.35;2.63;;;13.60;89.40;;;;;;5010393;28;20440;-83
2021/11/14 02:37:39;;;;;;;4.63;2.35;;;13.60;89.60;;;;;;5007111;28;20431;-83
2021/11/14 02:40:07;;;;;;;4.20;2.58;;;13.60;89.30;;;;;;5006864;28;20920;-82
2021/11/14 02:42:33;;;;;;;3.38;2.40;;;13.60;89.30;;;;;;5006626;28;20401;-83
2021/11/14 02:44:59;;;;;;;4.47;2.50;;;13.60;89.20;;;;;;5006964;28;20839;-83
2021/11/14 02:47:24;;;;;;;4.43;2.80;;;13.60;89.10;;;;;;5009192;28;20969;-82
2021/11/14 02:49:50;;;;;;;5.55;2.60;;;13.60;89.10;;;;;;5007849;28;20397;-83
2021/11/14 02:52:16;;;;;;;4.65;2.60;;;13.60;89.10;;;;;;5006743;28;20419;-83
2021/11/14 02:54:42;;;;;;;6.30;2.60;;;13.60;89.10;;;;;;5006752;28;20769;-83
2021/11/14 02:57:08;;;;;;;4.80;2.47;;;13.60;89.30;;;;;;5006655;28;20412;-82
2021/11/14 02:59:33;;;;;;;5.53;2.70;;;13.60;89.30;;;;;;5008436;28;20389;-83
2021/11/14 03:02:00;;;;;;;3.60;2.43;;;13.70;89.10;;;;;;5008915;28;20389;-82
2021/11/14 03:04:28;;;;;;;4.88;2.80;;;13.60;89.10;;;;;;5006438;28;20404;-83
2021/11/14 03:06:54;;;;;;;4.93;2.70;;;13.50;89.00;;;;;;5007168;28;20413;-82
2021/11/14 03:09:22;;;;;;;6.22;2.78;;;13.50;89.50;;;;;;5010595;28;20396;-82
2021/11/14 03:11:49;;;;;;;4.43;2.70;;;13.60;89.60;;;;;;5011027;28;20408;-83
2021/11/14 03:14:14;;;;;;;4.32;2.90;;;13.60;89.20;;;;;;5014030;28;20396;-83
2021/11/14 03:16:40;;;;;;;4.87;2.60;;;13.60;89.10;;;;;;5010336;28;20958;-83
2021/11/14 03:19:06;;;;;;;6.23;2.70;;;13.60;89.60;;;;;;5009709;28;20888;-83
2021/11/14 03:21:32;;;;;;;5.47;2.80;;;13.60;89.50;;;;;;5010167;28;20491;-83
2021/11/14 03:23:58;;;;;;;5.10;2.80;;;13.60;89.20;;;;;;5010315;28;20412;-83
2021/11/14 03:26:25;;;;;;;3.75;2.60;;;13.50;89.00;;;;;;5012763;28;20471;-83
2021/11/14 03:28:51;;;;;;;5.70;2.90;;;13.50;89.20;;;;;;5011368;28;20977;-83
2021/11/14 03:31:17;;;;;;;5.07;2.67;;;13.60;90.10;;;;;;5010016;28;20504;-83
2021/11/14 03:33:43;;;;;;;5.25;2.60;;;13.50;89.20;;;;;;5009612;28;20404;-83
2021/11/14 03:36:12;;;;;;;3.33;2.60;;;13.50;89.00;;;;;;5009679;28;21020;-83
2021/11/14 03:38:42;;;;;;;4.72;2.67;;;13.50;89.10;;;;;;5010903;28;20406;-83
2021/11/14 03:41:10;;;;;;;4.70;2.80;;;13.50;89.00;;;;;;5012748;28;20424;-83
2021/11/14 03:43:38;;;;;;;4.93;2.47;;;13.50;89.00;;;;;;5009772;28;20448;-83
2021/11/14 03:46:05;;;;;;;6.18;2.63;;;13.50;89.40;;;;;;5009632;28;20444;-83
2021/11/14 03:48:31;;;;;;;5.43;2.70;;;13.60;89.10;;;;;;4992002;28;20427;-83
2021/11/14 03:50:57;;;;;;;4.97;2.80;;;13.60;88.90;;;;;;5009630;28;20402;-84
2021/11/14 03:53:23;;;;;;;4.85;2.72;;;13.50;88.90;;;;;;5012263;28;21077;-84
2021/11/14 03:55:49;;;;;;;5.47;2.90;;;13.50;89.10;;;;;;5012023;28;20409;-84
2021/11/14 03:58:16;;;;;;;5.95;3.00;;;13.50;89.10;;;;;;5009113;28;20411;-84
2021/11/14 04:00:45;;;;;;;3.80;2.63;;;13.50;89.00;;;;;;4992216;28;20413;-84
2021/11/14 04:03:12;;;;;;;6.03;3.00;;;13.50;89.10;;;;;;5009011;28;20888;-84
2021/11/14 04:05:42;;;;;;;6.68;3.00;;;13.50;89.00;;;;;;5010162;28;20433;-84
2021/11/14 04:08:10;;;;;;;5.03;2.50;;;13.50;89.00;;;;;;5012163;28;20804;-83
2021/11/14 04:10:37;;;;;;;5.65;2.80;;;13.40;89.00;;;;;;5010701;28;20427;-83
2021/11/14 04:13:04;;;;;;;5.97;2.90;;;13.50;89.00;;;;;;5009512;28;20963;-82
2021/11/14 04:15:30;;;;;;;5.38;2.70;;;13.50;89.00;;;;;;5008923;28;20425;-82
2021/11/14 04:17:56;;;;;;;4.75;2.72;;;13.50;88.80;;;;;;5008584;28;20886;-83
2021/11/14 04:20:24;;;;;;;4.75;2.67;;;13.40;88.80;;;;;;5011239;28;20409;-82
2021/11/14 04:22:50;;;;;;;4.55;2.67;;;13.50;89.00;;;;;;4994083;28;20397;-82
2021/11/14 04:25:15;;;;;;;4.43;2.90;;;13.40;89.00;;;;;;5008806;28;20504;-82
2021/11/14 04:27:41;;;;;;;4.60;2.70;;;13.50;89.00;;;;;;5009332;28;20416;-82
2021/11/14 04:30:08;;;;;;;5.53;2.73;;;13.50;89.00;;;;;;4991863;28;20416;-82
2021/11/14 04:32:33;;;;;;;4.28;2.63;;;13.40;88.50;;;;;;5011666;28;20397;-82
2021/11/14 04:34:59;;;;;;;4.17;2.70;;;13.30;88.70;;;;;;5020941;28;20408;-82
2021/11/14 04:37:25;;;;;;;3.73;2.50;;;13.40;89.00;;;;;;5015328;28;20459;-81
2021/11/14 04:39:50;;;;;;;5.63;2.67;;;13.40;88.60;;;;;;5019130;28;20401;-81
2021/11/14 04:42:16;;;;;;;6.30;2.80;;;13.40;88.80;;;;;;5014513;28;20439;-83
2021/11/14 04:44:42;;;;;;;3.83;2.80;;;13.40;88.50;;;;;;5014837;28;20465;-82
2021/11/14 04:47:07;;;;;;;5.00;2.50;;;13.50;88.50;;;;;;5011601;28;20416;-83
2021/11/14 04:49:33;;;;;;;4.43;2.53;;;13.50;88.30;;;;;;5010749;28;20404;-83
2021/11/14 04:51:59;;;;;;;4.77;2.50;;;13.40;88.00;;;;;;5011097;28;20501;-82
2021/11/14 04:54:25;;;;;;;4.10;2.57;;;13.40;88.10;;;;;;5010992;28;20408;-82
2021/11/14 04:56:51;;;;;;;4.10;2.80;;;13.40;87.90;;;;;;5008109;28;20431;-81
2021/11/14 04:59:17;;;;;;;5.05;2.75;;;13.30;87.80;;;;;;5011860;28;20471;-82
2021/11/14 05:01:42;;;;;;;4.78;2.80;;;13.30;88.10;;;;;;5008434;28;20429;-83
2021/11/14 05:04:08;;;;;;;5.80;3.00;;;13.40;88.20;;;;;;5008304;28;20405;-83
2021/11/14 05:06:34;;;;;;;5.43;3.33;;;13.30;87.90;;;;;;5008287;28;20928;-83
2021/11/14 05:09:01;;;;;;;4.65;2.88;;;13.40;87.80;;;;;;4990896;28;20411;-83
2021/11/14 05:11:27;;;;;;;5.72;3.10;;;13.40;87.60;;;;;;5011400;28;20936;-82
2021/11/14 05:13:52;;;;;;;7.63;3.20;;;13.40;87.60;;;;;;4987717;28;20404;-83
2021/11/14 05:16:18;;;;;;;4.50;3.03;;;13.40;87.60;;;;;;5007729;28;20508;-83
2021/11/14 05:18:44;;;;;;;4.87;2.60;;;13.40;87.70;;;;;;5007929;28;20416;-83
2021/11/14 05:21:10;;;;;;;5.00;2.70;;;13.30;87.60;;;;;;4990790;28;20778;-83
2021/11/14 05:23:37;;;;;;;4.28;2.70;;;13.30;87.70;;;;;;5009341;28;20978;-83
2021/11/14 05:26:03;;;;;;;4.88;2.55;;;13.30;87.70;;;;;;5010196;28;20436;-83
2021/11/14 05:28:29;;;;;;;3.90;2.70;;;13.40;87.90;;;;;;5007444;28;20747;-83
2021/11/14 05:30:55;;;;;;;3.85;2.50;;;13.40;87.60;;;;;;5007391;28;20419;-83
2021/11/14 05:33:20;;;;;;;4.43;2.70;;;13.30;87.10;;;;;;5007576;28;20901;-83
2021/11/14 05:35:46;;;;;;;4.70;2.70;;;13.30;87.40;;;;;;5007751;28;20452;-83
2021/11/14 05:38:12;;;;;;;5.03;2.50;;;13.20;87.60;;;;;;5007088;28;21019;-82
2021/11/14 05:40:39;;;;;;;5.13;2.77;;;13.20;88.00;;;;;;4992972;28;20843;-83
2021/11/14 05:43:04;;;;;;;6.05;2.70;;;13.30;88.00;;;;;;5007210;28;20424;-83
2021/11/14 05:45:30;;;;;;;4.28;2.60;;;13.30;87.70;;;;;;5007379;28;20393;-82
2021/11/14 05:47:56;;;;;;;4.70;2.50;;;13.20;87.70;;;;;;5007701;28;20457;-82
2021/11/14 05:50:23;;;;;;;3.55;2.30;;;13.20;87.90;;;;;;5010259;28;20400;-82
2021/11/14 05:52:49;;;;;;;4.18;2.53;;;13.20;88.00;;;;;;5010041;28;20389;-82
2021/11/14 05:55:15;;;;;;;4.78;2.42;;;13.20;88.00;;;;;;5007193;28;20928;-83
2021/11/14 06:00:29;;;;;;;5.25;2.58;;;13.20;87.80;;;;;;5007205;28;20405;-82
2021/11/14 06:03:05;;;;;;;4.63;2.53;;;13.20;87.80;;;;;;4976335;28;20553;-83
2021/11/14 06:05:35;;;;;;;5.10;2.45;;;13.10;87.60;;;;;;5009518;28;20416;-82
2021/11/14 06:08:01;;;;;;;4.57;2.80;;;13.10;87.70;;;;;;5009452;28;21157;-83
2021/11/14 06:10:26;;;;;;;4.80;2.43;;;13.10;87.70;;;;;;4989785;28;20444;-82
2021/11/14 06:12:52;;;;;;;3.97;2.70;;;13.10;87.80;;;;;;5007448;28;20417;-83
2021/11/14 06:15:20;;;;;;;4.43;2.40;;;13.20;87.70;;;;;;5008490;28;20513;-83
2021/11/14 06:17:46;;;;;;;3.90;2.45;;;13.20;87.40;;;;;;4992224;28;20836;-83
2021/11/14 06:20:12;;;;;;;3.72;2.47;;;13.10;86.90;;;;;;5010915;28;20393;-82
2021/11/14 06:22:38;;;;;;;4.40;2.40;;;13.10;87.20;;;;;;5007153;28;20395;-83
2021/11/14 06:25:05;;;;;;;3.63;2.45;;;13.10;86.90;;;;;;4989526;28;20781;-83
2021/11/14 06:27:31;;;;;;;4.55;2.50;;;13.10;86.70;;;;;;5006448;28;20396;-83
2021/11/14 06:29:56;;;;;;;4.28;2.22;;;13.10;86.80;;;;;;5007391;28;20497;-84
2021/11/14 06:32:22;;;;;;;6.20;2.30;;;13.10;86.70;;;;;;5009473;28;20455;-83
2021/11/14 06:34:48;;;;;;;3.40;2.20;;;13.10;86.50;;;;;;5008193;28;20400;-82
2021/11/14 06:37:13;;;;;;;3.70;2.30;;;13.10;86.40;;;;;;5002830;28;20413;-83
2021/11/14 06:39:39;;;;;;;3.83;2.20;;;13.10;85.90;;;;;;5007201;28;20401;-83
2021/11/14 06:42:06;;;;;;;4.32;2.15;;;13.10;86.30;;;;;;5007482;28;20402;-81
2021/11/14 06:44:32;;;;;;;3.83;2.20;;;13.10;85.90;;;;;;4995269;28;20821;-82
2021/11/14 06:46:57;;;;;;;3.57;2.17;;;13.20;85.90;;;;;;5012287;28;20393;-82
2021/11/14 06:49:23;;;;;;;3.77;1.90;;;13.10;85.80;;;;;;5010468;28;20948;-83
2021/11/14 06:51:50;;;;;;;3.63;2.10;;;13.10;85.70;;;;;;5010591;28;20411;-83
2021/11/14 06:54:15;;;;;;;5.40;2.20;;;13.10;85.80;;;;;;4993534;28;20975;-83
2021/11/14 06:56:41;;;;;;;3.67;2.15;;;13.00;85.80;;;;;;5011326;28;20431;-83
2021/11/14 06:59:07;;;;;;;4.47;2.22;;;13.00;85.90;;;;;;5013579;28;20428;-83
2021/11/14 07:01:32;;;;;;;2.97;1.98;;;13.00;85.90;;;;;;5010514;28;20412;-83
2021/11/14 07:03:58;;;;;;;3.38;2.10;;;13.10;86.00;;;;;;5010775;28;20397;-83
2021/11/14 07:06:23;;;;;;;3.25;1.90;;;13.10;85.50;;;;;;5010167;28;20431;-83
2021/11/14 07:08:49;;;;;;;3.17;2.00;;;13.10;85.40;;;;;;5013054;28;20919;-83
2021/11/14 07:11:17;;;;;;;3.67;1.90;;;13.10;85.30;;;;;;4996261;28;20475;-83
2021/11/14 07:13:44;;;;;;;3.40;2.08;;;13.10;85.00;;;;;;5011456;28;20481;-83
2021/11/14 07:16:09;;;;;;;4.30;1.95;;;13.10;84.80;;;;;;5010126;28;20428;-83
2021/11/14 07:18:35;;;;;;;4.07;2.17;;;13.10;84.70;;;;;;5010186;28;20443;-83
2021/11/14 07:21:01;;;;;;;3.03;1.70;;;13.20;84.50;;;;;;5010148;28;20418;-83
2021/11/14 07:23:26;;;;;;;3.63;1.90;;;13.20;84.50;;;;;;5012466;28;20923;-83
2021/11/14 07:25:52;;;;;;;3.80;1.90;;;13.10;84.00;;;;;;5011296;28;20424;-82
2021/11/14 07:28:17;;;;;;;3.93;2.00;;;13.20;84.50;;;;;;5009911;28;20432;-81
2021/11/14 07:30:43;;;;;;;3.83;2.00;;;13.10;84.20;;;;;;5010181;28;20970;-82
2021/11/14 07:33:09;;;;;;;4.90;2.20;;;13.20;84.10;;;;;;5009949;28;20401;-81
2021/11/14 07:35:36;;;;;;;3.83;1.90;;;13.20;83.90;;;;;;4994187;28;20507;-82
2021/11/14 07:38:02;;;;;;;4.28;2.20;;;13.20;83.70;;;;;;4991253;28;20412;-81
2021/11/14 07:40:28;;;;;;;5.35;2.17;;;13.20;84.00;;;;;;5007663;28;20396;-82
2021/11/14 07:42:55;;;;;;;5.68;2.30;;;13.20;83.80;;;;;;5010095;28;20405;-81
2021/11/14 07:45:23;;;;;;;3.08;1.83;;;13.20;83.40;;;;;;4991877;28;20405;-82
2021/11/14 07:47:50;;;;;;;4.20;2.20;;;13.20;83.60;;;;;;5004169;28;20397;-84
2021/11/14 07:50:18;;;;;;;2.77;1.90;;;13.30;83.60;;;;;;5009732;28;20782;-73
2021/11/14 07:52:44;;;;;;;4.27;2.00;;;13.30;83.40;;;;;;5008714;28;20412;-71
2021/11/14 07:55:10;;;;;;;4.28;2.17;;;13.30;83.20;;;;;;4985781;28;20464;-71
2021/11/14 07:57:44;;;;;;;4.65;2.05;;;13.30;82.80;;;;;;4985093;28;20921;-70
2021/11/14 08:00:13;;;;;;;3.47;1.90;;;13.30;82.90;;;;;;5010234;28;20773;-70
2021/11/14 08:02:38;;;;;;;3.93;2.10;;;13.30;83.00;;;;;;4992886;28;20456;-70
2021/11/14 08:05:05;;;;;;;4.30;2.03;;;13.30;82.60;;;;;;5025793;28;20419;-70
2021/11/14 08:07:30;;;;;;;4.32;2.20;;;13.30;82.70;;;;;;5010395;28;20483;-70
2021/11/14 08:09:56;;;;;;;6.30;2.10;;;13.30;82.50;;;;;;5008869;28;20504;-76
2021/11/14 08:12:22;;;;;;;5.00;2.07;;;13.30;82.70;;;;;;5011665;28;20413;-71
2021/11/14 08:14:49;;;;;;;4.35;2.00;;;13.40;83.20;;;;;;5012135;28;20465;-69
2021/11/14 08:17:15;;;;;;;4.10;2.22;;;13.40;82.60;;;;;;5022016;28;20403;-69
2021/11/14 08:19:40;;;;;;;4.68;2.17;;;13.30;81.90;;;;;;5010814;28;20428;-75
2021/11/14 08:22:06;;;;;;;4.47;2.00;;;13.40;82.20;;;;;;4997419;28;20444;-75
2021/11/14 08:24:32;;;;;;;3.70;1.90;;;13.50;82.10;;;;;;5020010;28;20907;-74
2021/11/14 08:26:57;;;;;;;4.80;2.13;;;13.50;81.80;;;;;;5010621;28;20945;-74
2021/11/14 08:29:23;;;;;;;3.30;1.90;;;13.50;81.50;;;;;;5020991;28;20395;-74
2021/11/14 08:31:49;;;;;;;4.47;2.00;;;13.50;81.70;;;;;;5013115;28;20439;-73
2021/11/14 08:34:15;;;;;;;3.87;1.93;;;13.50;81.70;;;;;;5011744;28;20784;-75
2021/11/14 08:36:40;;;;;;;5.70;2.00;;;13.50;81.80;;;;;;4999243;28;20416;-76
2021/11/14 08:39:06;;;;;;;3.58;2.03;;;13.50;81.50;;;;;;5006851;28;20411;-76
2021/11/14 08:41:32;;;;;;;4.03;2.08;;;13.40;81.20;;;;;;5003410;28;20387;-75
2021/11/14 08:43:58;;;;;;;5.72;2.20;;;13.40;81.30;;;;;;5011559;28;20810;-74
2021/11/14 08:46:23;;;;;;;4.75;2.17;;;13.40;81.40;;;;;;4996571;28;20965;-76
2021/11/14 08:48:49;;;;;;;3.67;2.05;;;13.40;81.30;;;;;;5016213;28;20483;-74
2021/11/14 08:51:15;;;;;;;3.95;1.83;;;13.40;81.00;;;;;;4995267;28;20034;-75
2021/11/14 08:53:40;;;;;;;2.75;1.60;;;13.50;81.20;;;;;;5018931;28;20022;-70
2021/11/14 08:56:06;;;;;;;4.55;1.90;;;13.50;81.80;;;;;;5025425;28;20033;-71
2021/11/14 08:58:37;;;;;;;4.78;1.70;;;13.50;81.90;;;;;;5010986;28;20021;-70
2021/11/14 09:01:06;;;;;;;3.58;1.80;;;13.50;81.90;;;;;;5015453;28;20026;-71
2021/11/14 09:03:32;;;;;;;2.67;1.70;;;13.50;81.70;;;;;;5017822;28;20026;-71
2021/11/14 09:05:58;;;;;;;2.38;1.52;;;13.50;82.00;;;;;;5019714;28;20494;-71
2021/11/14 09:08:24;;;;;;;3.47;1.95;;;13.40;82.00;;;;;;5014615;28;20052;-72
2021/11/14 09:10:50;;;;;;;3.30;1.45;;;13.50;81.80;;;;;;4997631;28;20061;-71
2021/11/14 09:13:16;;;;;;;2.55;1.50;;;13.40;81.60;;;;;;5015710;28;20041;-71
2021/11/14 09:15:43;;;;;;;3.90;1.58;;;13.40;81.90;;;;;;5010028;28;20026;-71
2021/11/14 09:18:09;;;;;;;3.40;1.60;;;13.40;81.90;;;;;;5020659;28;20072;-71
2021/11/14 09:20:35;;;;;;;3.25;1.50;;;13.40;82.10;;;;;;5012749;28;20022;-70
2021/11/14 09:23:01;;;;;;;3.25;1.55;;;13.40;81.80;;;;;;5019068;28;20025;-69
2021/11/14 09:25:27;;;;;;;3.53;1.80;;;13.50;82.10;;;;;;5014182;28;20049;-71
2021/11/14 09:27:54;;;;;;;4.15;1.73;;;13.50;81.80;;;;;;5012063;28;20109;-73
2021/11/14 09:30:20;;;;;;;2.92;1.70;;;13.50;81.70;;;;;;5019959;28;20026;-72
2021/11/14 09:32:46;;;;;;;6.07;2.05;;;13.60;81.70;;;;;;4980723;28;20085;-72
2021/11/14 09:35:12;;;;;;;5.22;1.85;;;13.60;81.70;;;;;;5020265;28;20624;-72
2021/11/14 09:37:38;;;;;;;3.17;1.67;;;13.60;81.50;;;;;;4996128;28;20041;-72
2021/11/14 09:40:05;;;;;;;3.10;1.50;;;13.60;81.10;;;;;;5008705;28;20018;-73
2021/11/14 09:42:34;;;;;;;3.00;1.60;;;13.60;81.30;;;;;;5008003;28;20037;-73
2021/11/14 09:44:59;;;;;;;3.35;1.70;;;13.60;81.20;;;;;;5008141;28;20031;-72
2021/11/14 09:47:25;;;;;;;3.28;1.95;;;13.60;81.00;;;;;;5010759;28;20075;-73
2021/11/14 09:49:54;;;;;;;3.17;1.95;;;13.60;80.70;;;;;;4993131;28;20528;-74
2021/11/14 09:52:20;;;;;;;2.88;1.77;;;13.70;80.90;;;;;;5003973;28;20034;-74
2021/11/14 09:54:46;;;;;;;5.32;1.90;;;13.70;80.80;;;;;;5004406;28;20026;-75
2021/11/14 09:57:12;;;;;;;4.05;1.60;;;13.70;80.80;;;;;;5017243;28;20045;-75
2021/11/14 09:59:37;;;;;;;2.67;1.77;;;13.70;80.30;;;;;;5019029;28;20034;-75
2021/11/14 10:02:04;;;;;;;3.00;1.55;;;13.70;80.80;;;;;;5015694;28;20509;-73
2021/11/14 10:04:31;;;;;;;4.43;1.80;;;13.70;80.30;;;;;;5015714;28;20039;-73
2021/11/14 10:07:10;;;;;;;2.83;1.60;;;13.70;80.70;;;;;;5015979;28;20037;-75
2021/11/14 10:09:40;;;;;;;4.13;1.50;;;13.70;81.00;;;;;;5009351;28;20026;-73
2021/11/14 10:12:23;;;;;;;2.63;1.48;;;13.70;80.50;;;;;;5002852;28;20085;-73
2021/11/14 10:15:04;;;;;;;2.13;1.30;;;13.80;80.30;;;;;;4997271;28;20046;-73
2021/11/14 10:17:30;;;;;;;4.47;1.88;;;13.80;80.30;;;;;;5021602;28;20065;-74
2021/11/14 10:20:05;;;;;;;2.05;1.45;;;13.80;79.80;;;;;;5015379;28;20014;-72
2021/11/14 10:22:31;;;;;;;2.72;1.55;;;13.90;80.50;;;;;;5014239;28;20501;-71
2021/11/14 10:24:57;;;;;;;3.00;1.58;;;13.90;79.40;;;;;;5021222;28;20022;-71
2021/11/14 10:27:27;;;;;;;3.83;1.33;;;13.90;79.50;;;;;;5013714;28;20044;-72
2021/11/14 10:29:54;;;;;;;4.47;1.50;;;13.90;79.30;;;;;;5020260;28;20022;-71
2021/11/14 10:32:21;;;;;;;3.67;1.55;;;14.00;79.40;;;;;;5017876;28;20022;-71
2021/11/14 10:34:49;;;;;;;5.22;1.45;;;14.00;79.70;;;;;;5016511;28;20563;-71
2021/11/14 10:37:18;;;;;;;1.92;1.20;;;14.10;79.30;;;;;;5016456;28;20049;-72
2021/11/14 10:39:44;;;;;;;2.55;1.23;;;14.20;79.50;;;;;;5012437;28;20022;-72
2021/11/14 10:42:13;;;;;;;3.85;1.75;;;14.30;79.20;;;;;;5024682;28;20482;-72
2021/11/14 10:44:57;;;;;;;1.98;1.17;;;14.40;78.60;;;;;;5015617;28;20038;-72
2021/11/14 10:47:24;;;;;;;1.38;1.05;;;14.50;79.00;;;;;;5022025;28;20438;-72
2021/11/14 10:50:03;;;;;;;2.45;1.20;;;14.60;78.30;;;;;;5015463;28;20510;-72
2021/11/14 10:52:33;;;;;;;2.83;1.17;;;14.70;77.80;;;;;;5015038;28;20424;-72
2021/11/14 10:55:08;;;;;;;2.10;1.17;;;14.70;77.30;;;;;;5024913;28;20098;-73
2021/11/14 10:57:36;;;;;;;2.05;1.35;;;14.70;76.60;;;;;;5017974;28;20072;-72
2021/11/14 11:00:09;;;;;;;2.70;1.00;;;14.70;76.50;;;;;;5023468;28;20025;-72
2021/11/14 11:02:40;;;;;;;1.95;0.95;;;14.80;76.80;;;;;;5016505;28;20097;-72
2021/11/14 11:05:21;;;;;;;2.03;0.90;;;14.80;76.50;;;;;;5022365;28;20527;-73
2021/11/14 11:08:11;;;;;;;2.63;1.00;;;14.80;76.40;;;;;;5014113;28;20120;-73
2021/11/14 11:10:44;;;;;;;3.08;1.10;;;14.70;76.70;;;;;;5014817;28;20105;-71
2021/11/14 11:13:16;;;;;;;1.60;0.60;;;14.70;75.50;;;;;;5019231;28;20034;-70
2021/11/14 11:15:49;;;;;;;1.50;0.88;;;14.70;75.70;;;;;;5012590;28;20128;-72
2021/11/14 11:18:19;;;;;;;;;;;14.70;75.90;;;;;;5023154;28;20057;-72
2021/11/14 11:20:51;;;;;;;2.30;0.70;;;14.70;76.90;;;;;;4999874;28;19992;-70
2021/11/14 11:23:19;;;;;;;3.10;0.70;;;14.70;75.50;;;;;;5020744;28;20017;-71
2021/11/14 11:26:04;;;;;;;1.20;0.82;;;14.70;75.10;;;;;;5015270;28;20029;-71
2021/11/14 11:28:39;;;;;;;1.92;0.80;;;14.70;75.70;;;;;;5014059;28;20108;-70
2021/11/14 11:31:14;;;;;;;2.83;0.82;;;14.70;74.70;;;;;;5017997;28;20050;-71
2021/11/14 11:33:43;;;;;;;2.30;0.85;;;14.70;74.90;;;;;;5011841;28;20026;-71
2021/11/14 11:36:10;;;;;;;3.60;0.80;;;14.70;74.30;;;;;;5021372;28;20130;-69
2021/11/14 11:38:37;;;;;;;2.22;0.80;;;14.70;74.40;;;;;;5015932;28;20064;-71
2021/11/14 11:41:04;;;;;;;0.85;0.60;;;14.60;73.70;;;;;;5019733;28;20026;-71
2021/11/14 11:43:31;;;;;;;1.35;0.60;;;14.60;74.10;;;;;;5013624;28;20494;-73
2021/11/14 11:46:18;;;;;;;1.50;0.70;;;14.70;74.40;;;;;;4995218;28;20117;-71
2021/11/14 11:49:05;;;;;;;4.65;0.75;;;14.70;75.40;;;;;;4988176;28;20411;-72
2021/11/14 11:51:37;;;;;;;1.50;0.68;;;14.70;75.20;;;;;;5011848;28;20029;-72
2021/11/14 11:54:12;;;;;;;1.70;0.70;;;14.70;74.40;;;;;;5020751;28;20034;-71
2021/11/14 11:56:41;;;;;;;3.05;0.70;;;14.70;74.60;;;;;;5024262;28;20465;-72
2021/11/14 11:59:16;;;;;;;0.95;0.52;;;14.70;74.30;;;;;;5021644;28;20482;-72
2021/11/14 12:01:58;;;;;;;1.23;0.50;;;14.60;74.30;;;;;;5012234;28;20026;-71
2021/11/14 12:04:42;;;;;;;1.00;0.43;;;14.60;73.40;;;;;;5014164;28;20108;-72
2021/11/14 12:07:29;;;;;;;0.88;0.40;;;14.60;74.30;;;;;;5016180;28;20117;-70
2021/11/14 12:09:57;;;;;;;1.25;0.60;;;14.50;73.80;;;;;;4997054;28;20081;-71
2021/11/14 12:12:45;;;;;;;1.75;0.50;;;14.60;73.70;;;;;;5007116;28;20028;-71
2021/11/14 12:15:22;;;;;;;1.20;0.50;;;14.60;74.50;;;;;;5011585;28;20376;-71
2021/11/14 12:18:15;;;;;;;3.63;0.85;;;14.70;74.00;;;;;;5014807;28;20037;-71
2021/11/14 12:20:45;;;;;;;2.15;0.80;;;14.70;74.10;;;;;;5012454;28;20514;-71
2021/11/14 12:23:27;;;;;;;2.28;1.00;;;14.60;73.50;;;;;;5021937;28;20026;-71
2021/11/14 12:25:55;;;;;;;2.85;1.00;;;14.60;73.90;;;;;;4997159;28;20026;-72
2021/11/14 12:28:27;;;;;;;2.63;1.33;;;14.60;73.50;;;;;;5012314;28;20030;-70
2021/11/14 12:30:56;;;;;;;4.20;1.55;;;14.60;73.70;;;;;;5018118;28;20117;-71
2021/11/14 12:33:24;;;;;;;4.25;1.33;;;14.60;73.10;;;;;;4996413;28;20033;-71
2021/11/14 12:35:54;;;;;;;2.90;0.95;;;14.60;73.40;;;;;;5018694;28;20034;-70
2021/11/14 12:38:24;;;;;;;2.80;1.00;;;14.50;73.40;;;;;;5016676;28;20022;-72
2021/11/14 12:41:11;;;;;;;1.50;0.70;;;14.60;73.10;;;;;;5018019;28;20026;-70
2021/11/14 12:43:49;;;;;;;0.98;0.75;;;14.60;73.60;;;;;;4994988;28;20037;-71
2021/11/14 12:46:27;;;;;;;3.55;0.65;;;14.50;72.90;;;;;;5012639;28;20025;-72
2021/11/14 12:48:53;;;;;;;2.65;0.77;;;14.50;72.90;;;;;;5020306;28;20045;-71
2021/11/14 12:51:26;;;;;;;1.17;0.60;;;14.50;73.30;;;;;;5010747;28;20475;-71
2021/11/14 12:54:09;;;;;;;1.67;0.50;;;14.50;73.30;;;;;;5016474;28;20117;-71